Time;durP1;ratioP1;P1;durP2;ratioP2;P2;SDS_P1;SDS_P2;PMS_P1;PMS_P2;Temp;Humidity;BMP_temperature;BMP_pressure;BME280_temperature;BME280_humidity;BME280_pressure;Samples;Min_cycle;Max_cycle;Signal;HPM_P1;HPM_P2
2023/06/28 00:02:00;;;;;;;5.70;1.80;;;15.50;99.90;;;;;;5091756;27;20207;-81
2023/06/28 00:04:25;;;;;;;8.35;2.17;;;15.50;99.90;;;;;;5108943;27;20082;-80
2023/06/28 00:06:51;;;;;;;6.10;2.60;;;15.40;99.90;;;;;;5092467;27;20043;-81
2023/06/28 00:09:17;;;;;;;5.07;2.20;;;15.40;99.90;;;;;;5108069;27;20049;-80
2023/06/28 00:11:45;;;;;;;12.05;2.45;;;15.40;99.90;;;;;;5110166;27;20050;-81
2023/06/28 00:14:11;;;;;;;9.48;2.60;;;15.40;99.90;;;;;;5108501;27;20047;-80
2023/06/28 00:16:36;;;;;;;5.30;1.83;;;15.30;99.90;;;;;;5127801;27;20498;-80
2023/06/28 00:19:02;;;;;;;7.25;2.13;;;15.30;99.90;;;;;;5107967;27;20482;-81
2023/06/28 00:21:28;;;;;;;9.50;3.15;;;15.30;99.90;;;;;;5126908;27;20043;-81
2023/06/28 00:23:54;;;;;;;5.53;1.95;;;15.30;99.90;;;;;;5127568;27;20043;-80
2023/06/28 00:26:21;;;;;;;9.70;3.03;;;15.30;99.90;;;;;;5107902;27;20046;-81
2023/06/28 00:28:47;;;;;;;5.20;2.05;;;15.30;99.90;;;;;;5092735;27;20103;-81
2023/06/28 00:31:13;;;;;;;4.85;1.80;;;15.20;99.90;;;;;;5126303;27;20577;-81
2023/06/28 00:33:39;;;;;;;7.15;2.03;;;15.20;99.90;;;;;;5108600;27;20436;-81
2023/06/28 00:36:05;;;;;;;5.65;2.25;;;15.20;99.90;;;;;;5108254;27;20047;-81
2023/06/28 00:38:32;;;;;;;11.68;2.20;;;15.20;99.90;;;;;;5107546;27;20572;-80
2023/06/28 00:40:58;;;;;;;9.55;2.05;;;15.20;99.90;;;;;;5091344;27;20126;-81
2023/06/28 00:43:24;;;;;;;8.30;2.88;;;15.20;99.90;;;;;;5090339;27;20082;-81
2023/06/28 00:45:49;;;;;;;3.97;1.58;;;15.20;99.90;;;;;;5075321;27;20922;-80
2023/06/28 00:48:15;;;;;;;5.32;1.80;;;15.10;99.90;;;;;;5107121;27;20050;-81
2023/06/28 00:50:45;;;;;;;9.80;3.40;;;15.20;99.90;;;;;;5110552;27;20043;-81
2023/06/28 00:53:13;;;;;;;10.20;3.35;;;15.20;99.90;;;;;;5096648;27;20054;-80
2023/06/28 00:55:38;;;;;;;7.43;1.98;;;15.10;99.90;;;;;;5114147;27;20051;-80
2023/06/28 00:58:04;;;;;;;4.13;1.70;;;15.20;99.90;;;;;;5077922;27;20043;-81
2023/06/28 01:00:30;;;;;;;5.18;1.83;;;15.20;99.90;;;;;;5090302;27;20096;-81
2023/06/28 01:02:55;;;;;;;5.65;1.45;;;15.10;99.90;;;;;;5109224;27;20049;-81
2023/06/28 01:05:22;;;;;;;7.57;2.72;;;15.20;99.90;;;;;;5106554;27;20478;-80
2023/06/28 01:07:48;;;;;;;5.60;1.60;;;15.20;99.90;;;;;;5108608;27;20103;-80
2023/06/28 01:10:17;;;;;;;11.32;2.40;;;15.20;99.90;;;;;;5126280;27;20039;-81
2023/06/28 01:12:43;;;;;;;11.60;2.20;;;15.20;99.90;;;;;;5091234;27;20051;-80
2023/06/28 01:15:10;;;;;;;6.07;2.00;;;15.10;99.90;;;;;;5128218;27;20438;-82
2023/06/28 01:17:36;;;;;;;7.00;2.13;;;15.20;99.90;;;;;;5091919;27;20130;-81
2023/06/28 01:20:03;;;;;;;8.25;1.77;;;15.20;99.90;;;;;;5108896;27;20461;-81
2023/06/28 01:22:31;;;;;;;6.97;2.30;;;15.20;99.90;;;;;;5106266;27;20051;-81
2023/06/28 01:24:57;;;;;;;4.97;2.20;;;15.10;99.90;;;;;;5074360;27;20043;-81
2023/06/28 01:27:25;;;;;;;10.45;2.88;;;15.20;99.90;;;;;;5106881;27;20059;-81
2023/06/28 01:29:56;;;;;;;7.43;1.88;;;15.20;99.90;;;;;;5107165;27;20131;-81
2023/06/28 01:32:22;;;;;;;4.55;1.83;;;15.20;99.90;;;;;;5107600;27;20130;-81
2023/06/28 01:34:48;;;;;;;4.57;1.70;;;15.20;99.90;;;;;;5106366;27;20598;-81
2023/06/28 01:37:14;;;;;;;8.07;2.58;;;15.30;99.90;;;;;;5126746;27;20126;-81
2023/06/28 01:39:40;;;;;;;6.35;1.98;;;15.20;99.90;;;;;;5106145;27;20173;-81
2023/06/28 01:42:06;;;;;;;4.38;2.03;;;15.20;99.90;;;;;;5126267;27;20050;-80
2023/06/28 01:44:32;;;;;;;6.95;2.15;;;15.10;99.90;;;;;;5086076;28;20113;-80
2023/06/28 01:46:58;;;;;;;8.40;1.77;;;15.10;99.90;;;;;;5102773;28;20514;-81
2023/06/28 01:49:25;;;;;;;5.88;1.85;;;15.10;99.90;;;;;;5104232;28;20482;-81
2023/06/28 01:51:53;;;;;;;9.85;2.13;;;15.10;99.90;;;;;;5102431;28;20053;-80
2023/06/28 01:54:18;;;;;;;5.40;1.80;;;15.10;99.90;;;;;;5105166;28;20040;-80
2023/06/28 01:56:44;;;;;;;4.93;1.75;;;15.10;99.90;;;;;;5085613;28;20513;-80
2023/06/28 01:59:10;;;;;;;6.63;1.98;;;15.10;99.90;;;;;;5087443;28;20051;-81
2023/06/28 02:01:35;;;;;;;6.07;1.60;;;15.20;99.90;;;;;;5086621;28;20051;-81
2023/06/28 02:04:01;;;;;;;7.93;1.92;;;15.10;99.90;;;;;;5086584;28;20078;-81
2023/06/28 02:06:27;;;;;;;5.13;1.48;;;15.20;99.90;;;;;;5103794;28;20047;-81
2023/06/28 02:08:53;;;;;;;4.25;1.13;;;15.20;99.90;;;;;;5103777;28;20436;-81
2023/06/28 02:11:18;;;;;;;6.70;1.77;;;15.20;99.90;;;;;;5104414;28;20058;-80
2023/06/28 02:13:44;;;;;;;8.07;1.90;;;15.20;99.90;;;;;;5085681;28;20091;-81
2023/06/28 02:16:09;;;;;;;5.80;1.60;;;15.20;99.90;;;;;;5087389;28;20048;-82
2023/06/28 02:18:36;;;;;;;4.22;1.63;;;15.20;99.90;;;;;;5104692;28;20051;-81
2023/06/28 02:21:02;;;;;;;9.68;1.80;;;15.20;99.90;;;;;;5086770;28;20453;-81
2023/06/28 02:23:27;;;;;;;5.70;1.88;;;15.30;99.90;;;;;;5105777;28;20080;-81
2023/06/28 02:25:53;;;;;;;7.13;2.10;;;15.30;99.90;;;;;;5105479;28;20096;-80
2023/06/28 02:28:19;;;;;;;6.80;1.60;;;15.30;99.90;;;;;;5110282;28;20250;-81
2023/06/28 02:30:45;;;;;;;6.72;1.88;;;15.30;99.90;;;;;;5086169;28;20036;-81
2023/06/28 02:33:11;;;;;;;7.55;1.92;;;15.90;99.90;;;;;;5087823;28;20039;-81
2023/06/28 02:35:37;;;;;;;9.48;2.17;;;15.40;99.90;;;;;;5103083;28;20058;-81
2023/06/28 02:38:02;;;;;;;8.43;2.05;;;15.40;99.90;;;;;;5086533;28;20271;-81
2023/06/28 02:40:28;;;;;;;5.32;1.65;;;15.40;99.90;;;;;;5104516;28;20086;-81
2023/06/28 02:42:53;;;;;;;5.43;2.35;;;15.40;99.90;;;;;;5104078;28;20082;-81
2023/06/28 02:45:19;;;;;;;3.90;2.17;;;15.40;99.90;;;;;;5104023;28;20051;-81
2023/06/28 02:47:45;;;;;;;3.65;1.92;;;15.40;99.90;;;;;;5103669;28;20043;-81
2023/06/28 02:50:11;;;;;;;4.45;2.35;;;15.40;99.90;;;;;;5087126;28;20043;-81
2023/06/28 02:52:36;;;;;;;6.07;2.60;;;15.30;99.90;;;;;;5102832;28;20091;-81
2023/06/28 02:55:02;;;;;;;9.68;2.22;;;15.30;99.90;;;;;;5086349;28;20438;-81
2023/06/28 02:57:28;;;;;;;3.85;2.30;;;15.30;99.90;;;;;;5103735;28;20448;-81
2023/06/28 02:59:53;;;;;;;8.52;3.03;;;15.40;99.90;;;;;;5106631;28;20035;-81
2023/06/28 03:02:19;;;;;;;6.88;2.28;;;15.30;99.90;;;;;;5090479;28;20535;-81
2023/06/28 03:04:45;;;;;;;4.80;2.35;;;15.30;99.90;;;;;;5105681;28;20046;-80
2023/06/28 03:07:16;;;;;;;6.53;3.03;;;15.30;99.90;;;;;;5108045;28;20066;-80
2023/06/28 03:09:41;;;;;;;5.13;3.38;;;15.30;99.90;;;;;;5089452;28;20096;-81
2023/06/28 03:12:08;;;;;;;5.22;2.42;;;15.30;99.90;;;;;;5107839;28;20500;-81
2023/06/28 03:14:34;;;;;;;6.72;2.38;;;15.30;99.90;;;;;;5106213;28;20044;-82
2023/06/28 03:17:00;;;;;;;8.63;2.70;;;15.30;99.90;;;;;;5105232;28;20101;-81
2023/06/28 03:19:26;;;;;;;6.35;2.15;;;15.40;99.90;;;;;;5090487;28;20075;-81
2023/06/28 03:21:51;;;;;;;5.88;2.47;;;15.30;99.90;;;;;;5106655;28;20682;-80
2023/06/28 03:24:17;;;;;;;6.30;2.85;;;15.30;99.90;;;;;;5107539;28;20132;-80
2023/06/28 03:26:43;;;;;;;8.70;2.78;;;15.30;99.90;;;;;;5107586;28;20056;-80
2023/06/28 03:29:08;;;;;;;5.50;2.58;;;15.30;99.90;;;;;;5106289;28;20478;-80
2023/06/28 03:31:34;;;;;;;5.32;2.40;;;15.40;99.90;;;;;;5106602;28;20078;-81
2023/06/28 03:33:59;;;;;;;6.68;2.67;;;15.40;99.90;;;;;;5107695;28;20044;-80
2023/06/28 03:36:27;;;;;;;6.03;2.67;;;15.40;99.90;;;;;;5107602;28;20134;-80
2023/06/28 03:38:54;;;;;;;4.82;2.67;;;15.30;99.90;;;;;;5106610;28;20132;-81
2023/06/28 03:41:19;;;;;;;10.02;2.63;;;15.30;99.90;;;;;;5108424;28;20118;-81
2023/06/28 03:43:45;;;;;;;8.27;2.05;;;15.30;99.90;;;;;;5106947;27;20139;-81
2023/06/28 03:46:11;;;;;;;8.10;2.78;;;15.40;99.90;;;;;;5109943;27;20131;-80
2023/06/28 03:48:37;;;;;;;5.90;2.92;;;15.40;99.90;;;;;;5092355;27;20042;-81
2023/06/28 03:51:02;;;;;;;6.00;2.65;;;15.30;99.90;;;;;;5091794;27;20064;-81
2023/06/28 03:53:28;;;;;;;9.07;3.45;;;15.40;99.90;;;;;;5093769;27;20047;-81
2023/06/28 03:55:54;;;;;;;10.70;2.47;;;15.40;99.90;;;;;;5113776;27;20047;-79
2023/06/28 03:58:20;;;;;;;4.55;2.03;;;15.40;99.90;;;;;;5101028;27;20063;-80
2023/06/28 04:00:45;;;;;;;4.10;2.08;;;15.40;99.90;;;;;;5094880;27;20047;-81
2023/06/28 04:03:11;;;;;;;8.32;2.45;;;15.40;99.90;;;;;;5110300;27;20122;-79
2023/06/28 04:05:37;;;;;;;5.95;2.45;;;15.40;99.90;;;;;;5075913;27;20501;-80
2023/06/28 04:08:02;;;;;;;8.50;2.33;;;15.40;99.90;;;;;;5109279;27;20635;-80
2023/06/28 04:10:28;;;;;;;6.13;1.95;;;15.40;99.90;;;;;;5075057;27;20054;-81
2023/06/28 04:12:54;;;;;;;4.78;2.20;;;15.40;99.90;;;;;;5090606;27;20114;-80
2023/06/28 04:15:20;;;;;;;4.45;1.95;;;15.40;99.90;;;;;;5092966;27;20035;-80
2023/06/28 04:17:46;;;;;;;4.35;1.70;;;15.40;99.90;;;;;;5090689;27;20046;-80
2023/06/28 04:20:12;;;;;;;2.72;1.50;;;15.40;99.90;;;;;;5092421;27;20129;-80
2023/06/28 04:22:38;;;;;;;4.82;1.40;;;15.40;99.90;;;;;;5108297;27;20182;-81
2023/06/28 04:25:04;;;;;;;2.50;1.17;;;15.40;99.90;;;;;;5091871;27;20051;-80
2023/06/28 04:27:29;;;;;;;5.38;1.27;;;15.40;99.90;;;;;;5091913;27;20043;-80
2023/06/28 04:29:55;;;;;;;5.60;2.53;;;15.40;99.90;;;;;;5090565;27;20050;-80
2023/06/28 04:32:23;;;;;;;3.42;1.23;;;15.40;99.90;;;;;;5109837;27;20528;-82
2023/06/28 04:34:53;;;;;;;1.98;0.95;;;15.40;99.90;;;;;;5090532;27;20054;-81
2023/06/28 04:37:20;;;;;;;2.47;1.10;;;15.40;99.90;;;;;;5108616;27;20039;-80
2023/06/28 04:39:46;;;;;;;3.15;1.08;;;15.40;99.90;;;;;;5108104;27;20043;-82
2023/06/28 04:42:15;;;;;;;2.97;1.25;;;15.40;99.90;;;;;;5107893;27;20055;-81
2023/06/28 04:44:47;;;;;;;1.60;1.10;;;15.40;99.90;;;;;;5108364;27;20047;-80
2023/06/28 04:47:16;;;;;;;3.45;1.27;;;15.40;99.90;;;;;;5107275;27;20415;-81
2023/06/28 04:49:51;;;;;;;3.80;1.08;;;15.40;99.90;;;;;;5091969;27;20074;-81
2023/06/28 04:52:22;;;;;;;3.30;2.25;;;15.40;99.90;;;;;;5091231;27;20098;-81
2023/06/28 04:54:49;;;;;;;9.80;1.63;;;15.40;99.90;;;;;;5107597;27;20076;-81
2023/06/28 04:57:16;;;;;;;3.38;1.55;;;15.40;99.90;;;;;;5108379;27;20394;-81
2023/06/28 04:59:42;;;;;;;4.00;1.20;;;15.40;99.90;;;;;;5106765;27;20043;-81
2023/06/28 05:02:09;;;;;;;3.03;1.30;;;15.40;99.90;;;;;;5091762;27;20141;-81
2023/06/28 05:04:37;;;;;;;3.53;1.42;;;15.40;99.90;;;;;;5106802;27;20126;-81
2023/06/28 05:07:05;;;;;;;2.90;1.52;;;15.40;99.90;;;;;;5075293;27;20084;-82
2023/06/28 05:09:32;;;;;;;3.20;1.30;;;15.30;99.90;;;;;;5107229;27;20578;-81
2023/06/28 05:11:57;;;;;;;5.07;1.35;;;15.40;99.90;;;;;;5090927;27;20054;-81
2023/06/28 05:14:24;;;;;;;4.32;1.35;;;15.40;99.90;;;;;;5108040;27;20478;-81
2023/06/28 05:16:50;;;;;;;5.28;1.60;;;15.40;99.90;;;;;;5089515;27;20051;-81
2023/06/28 05:19:16;;;;;;;1.98;1.20;;;15.40;99.90;;;;;;5108549;27;20043;-81
2023/06/28 05:21:42;;;;;;;3.17;1.33;;;15.50;99.90;;;;;;5072055;27;20107;-80
2023/06/28 05:24:07;;;;;;;4.43;2.05;;;14.90;99.90;;;;;;5091299;27;20047;-81
2023/06/28 05:26:33;;;;;;;6.18;1.65;;;15.50;99.90;;;;;;5090168;27;20569;-81
2023/06/28 05:28:58;;;;;;;7.18;1.90;;;15.50;99.90;;;;;;5114597;27;20058;-79
2023/06/28 05:31:24;;;;;;;3.88;1.65;;;15.50;99.90;;;;;;5081805;27;20039;-80
2023/06/28 05:33:50;;;;;;;8.07;1.77;;;15.40;99.90;;;;;;5107981;27;20047;-81
2023/06/28 05:36:20;;;;;;;4.30;1.60;;;15.50;99.90;;;;;;5092217;27;20130;-81
2023/06/28 05:38:46;;;;;;;4.57;1.60;;;15.40;99.90;;;;;;5089552;27;20060;-80
2023/06/28 05:41:13;;;;;;;3.35;1.80;;;15.50;99.90;;;;;;5108073;27;20080;-80
2023/06/28 05:43:41;;;;;;;3.83;1.50;;;15.50;99.90;;;;;;5107210;27;20237;-81
2023/06/28 05:46:07;;;;;;;9.40;1.85;;;15.50;99.90;;;;;;5107781;28;20343;-81
2023/06/28 05:48:33;;;;;;;3.97;2.10;;;15.60;99.90;;;;;;5107458;27;20327;-80
2023/06/28 05:50:58;;;;;;;3.25;1.83;;;15.70;99.90;;;;;;5106166;27;20050;-81
2023/06/28 05:53:24;;;;;;;3.28;1.80;;;15.70;99.90;;;;;;5108601;27;20043;-82
2023/06/28 05:55:50;;;;;;;6.75;1.85;;;15.80;99.90;;;;;;5089612;28;20553;-81
2023/06/28 05:58:16;;;;;;;6.47;2.30;;;15.90;99.90;;;;;;5091092;28;20686;-81
2023/06/28 06:00:42;;;;;;;6.13;2.30;;;15.90;99.90;;;;;;5125383;28;20071;-81
2023/06/28 06:03:08;;;;;;;4.00;1.95;;;16.00;99.90;;;;;;5106901;28;20039;-81
2023/06/28 06:05:34;;;;;;;6.93;2.08;;;16.00;99.90;;;;;;5125870;28;20036;-80
2023/06/28 06:07:59;;;;;;;2.88;1.92;;;16.10;99.90;;;;;;5105895;28;20039;-80
2023/06/28 06:10:26;;;;;;;2.50;1.67;;;16.10;99.90;;;;;;5091052;28;20049;-81
2023/06/28 06:12:53;;;;;;;2.28;1.90;;;16.10;99.90;;;;;;5125118;28;20086;-80
2023/06/28 06:15:19;;;;;;;5.25;1.73;;;16.10;99.90;;;;;;5107960;28;20498;-80
2023/06/28 06:17:46;;;;;;;2.95;1.90;;;16.10;99.90;;;;;;5106537;28;20039;-81
2023/06/28 06:20:15;;;;;;;7.32;2.03;;;16.20;99.90;;;;;;5089830;28;20552;-81
2023/06/28 06:22:43;;;;;;;3.50;1.65;;;16.20;99.90;;;;;;5090111;28;20126;-81
2023/06/28 06:25:09;;;;;;;4.10;1.92;;;16.20;99.90;;;;;;5089242;28;20046;-81
2023/06/28 06:27:35;;;;;;;5.72;2.20;;;16.20;99.90;;;;;;5090960;28;20039;-81
2023/06/28 06:30:02;;;;;;;4.03;2.10;;;16.20;99.90;;;;;;5106377;28;20376;-79
2023/06/28 06:32:28;;;;;;;4.70;1.90;;;16.20;99.90;;;;;;5108398;27;20039;-80
2023/06/28 06:34:57;;;;;;;5.25;2.72;;;16.20;99.90;;;;;;5110220;27;20053;-80
2023/06/28 06:37:26;;;;;;;6.43;2.40;;;16.20;99.90;;;;;;5110262;27;20137;-80
2023/06/28 06:39:53;;;;;;;4.10;2.17;;;16.10;99.90;;;;;;5094048;27;20037;-80
2023/06/28 06:42:19;;;;;;;4.82;2.30;;;16.20;99.90;;;;;;5092869;27;20039;-82
2023/06/28 06:44:45;;;;;;;5.50;2.55;;;16.10;99.90;;;;;;5094623;27;20151;-81
2023/06/28 06:47:11;;;;;;;5.30;2.35;;;16.10;99.90;;;;;;5092722;27;20443;-80
2023/06/28 06:49:36;;;;;;;5.20;2.70;;;16.10;99.90;;;;;;5094316;27;20047;-82
2023/06/28 06:52:03;;;;;;;9.88;3.17;;;16.10;99.90;;;;;;5109871;27;20047;-80
2023/06/28 06:54:32;;;;;;;5.15;2.83;;;16.20;99.90;;;;;;5110372;27;20051;-81
2023/06/28 06:57:02;;;;;;;4.90;2.72;;;16.20;99.90;;;;;;5111860;27;20036;-83
2023/06/28 06:59:27;;;;;;;5.07;3.05;;;16.20;99.90;;;;;;5114365;27;20047;-81
2023/06/28 07:01:54;;;;;;;8.70;3.22;;;16.20;99.90;;;;;;5114735;27;20046;-80
2023/06/28 07:04:21;;;;;;;7.90;3.92;;;16.20;99.90;;;;;;5111393;27;20047;-80
2023/06/28 07:06:48;;;;;;;11.55;4.13;;;16.20;99.90;;;;;;5111380;27;20050;-80
2023/06/28 07:09:14;;;;;;;7.90;3.20;;;16.20;99.90;;;;;;5110468;27;20495;-80
2023/06/28 07:11:41;;;;;;;5.93;4.03;;;16.10;99.90;;;;;;5110056;27;20035;-81
2023/06/28 07:14:06;;;;;;;9.50;3.92;;;16.20;99.90;;;;;;5110937;27;20349;-80
2023/06/28 07:16:32;;;;;;;9.43;4.30;;;16.20;99.90;;;;;;5075156;27;20043;-80
2023/06/28 07:18:58;;;;;;;9.82;4.30;;;16.10;99.90;;;;;;5094173;27;20057;-80
2023/06/28 07:21:23;;;;;;;9.07;4.22;;;16.10;99.90;;;;;;5108713;27;20043;-79
2023/06/28 07:23:49;;;;;;;6.35;4.03;;;16.10;99.90;;;;;;5110329;27;20058;-80
2023/06/28 07:26:15;;;;;;;6.88;4.22;;;16.10;99.90;;;;;;5109519;27;20047;-81
2023/06/28 07:28:41;;;;;;;9.07;4.30;;;16.20;99.90;;;;;;5109989;27;20051;-78
2023/06/28 07:31:07;;;;;;;11.02;4.53;;;16.30;99.90;;;;;;5093488;27;20559;-80
2023/06/28 07:33:33;;;;;;;9.68;4.78;;;16.30;99.90;;;;;;5091603;27;20047;-79
2023/06/28 07:35:58;;;;;;;9.88;4.63;;;16.40;99.90;;;;;;5110124;27;20047;-80
2023/06/28 07:38:24;;;;;;;13.70;5.32;;;16.50;99.90;;;;;;5108190;27;20047;-80
2023/06/28 07:40:50;;;;;;;9.25;4.18;;;16.40;99.90;;;;;;5110151;27;20035;-80
2023/06/28 07:43:17;;;;;;;7.07;4.50;;;16.50;99.90;;;;;;5108792;27;20071;-81
2023/06/28 07:45:43;;;;;;;8.40;4.70;;;16.50;99.90;;;;;;5107747;27;20492;-79
2023/06/28 07:48:09;;;;;;;9.57;4.40;;;16.50;99.90;;;;;;5127883;27;20121;-81
2023/06/28 07:50:35;;;;;;;7.20;3.85;;;16.40;99.90;;;;;;5126250;27;20490;-81
2023/06/28 07:53:01;;;;;;;13.00;4.85;;;16.50;99.90;;;;;;5128529;27;20046;-80
2023/06/28 07:55:28;;;;;;;8.68;5.35;;;16.50;99.90;;;;;;5108525;27;20107;-81
2023/06/28 07:57:55;;;;;;;9.07;5.30;;;17.60;99.90;;;;;;5128181;27;20039;-81
2023/06/28 08:00:21;;;;;;;8.52;4.00;;;16.70;99.90;;;;;;5091825;27;20626;-82
2023/06/28 08:02:48;;;;;;;8.20;4.05;;;18.50;99.90;;;;;;5108490;27;20130;-81
2023/06/28 08:05:14;;;;;;;8.27;5.10;;;16.90;99.90;;;;;;5092836;27;20397;-80
2023/06/28 08:07:39;;;;;;;6.25;4.45;;;16.90;99.90;;;;;;5074463;27;20039;-79
2023/06/28 08:10:05;;;;;;;9.35;4.78;;;16.90;99.90;;;;;;5111258;27;20118;-80
2023/06/28 08:12:31;;;;;;;8.00;4.57;;;16.80;99.90;;;;;;5090724;27;20039;-80
2023/06/28 08:14:57;;;;;;;9.60;4.93;;;16.80;99.90;;;;;;5128263;27;20134;-82
2023/06/28 08:17:23;;;;;;;6.40;3.83;;;16.80;99.90;;;;;;5108408;27;20047;-81
2023/06/28 08:19:49;;;;;;;6.25;3.97;;;16.90;99.90;;;;;;5126958;27;20554;-80
2023/06/28 08:22:15;;;;;;;6.47;4.03;;;16.90;99.90;;;;;;5109171;27;20117;-80
2023/06/28 08:24:40;;;;;;;6.88;4.43;;;17.00;99.90;;;;;;5126657;27;20071;-80
2023/06/28 08:27:07;;;;;;;8.73;3.55;;;17.00;99.90;;;;;;5109608;27;20039;-79
2023/06/28 08:29:32;;;;;;;8.45;3.85;;;17.10;99.90;;;;;;5108164;27;20062;-79
2023/06/28 08:31:58;;;;;;;6.55;4.15;;;17.10;99.90;;;;;;5112266;27;20592;-79
2023/06/28 08:34:24;;;;;;;7.68;4.47;;;17.20;99.90;;;;;;5110926;27;20039;-79
2023/06/28 08:36:49;;;;;;;13.13;5.57;;;17.20;99.90;;;;;;5092086;27;20410;-80
2023/06/28 08:39:16;;;;;;;7.93;3.80;;;17.20;99.90;;;;;;5091956;27;20051;-79
2023/06/28 08:41:43;;;;;;;6.95;3.80;;;17.20;99.90;;;;;;5108022;27;20394;-79
2023/06/28 08:44:12;;;;;;;8.23;4.55;;;17.20;99.90;;;;;;5127443;27;20059;-81
2023/06/28 08:46:41;;;;;;;5.18;3.50;;;17.30;99.90;;;;;;5125725;27;20055;-80
2023/06/28 08:49:07;;;;;;;6.50;3.70;;;17.40;99.90;;;;;;5109015;27;20051;-81
2023/06/28 08:51:33;;;;;;;7.35;3.70;;;17.40;99.90;;;;;;5091196;27;20039;-80
2023/06/28 08:53:59;;;;;;;10.63;4.07;;;17.30;99.90;;;;;;5091003;27;20043;-81
2023/06/28 08:56:27;;;;;;;9.18;3.83;;;17.30;99.90;;;;;;5091120;27;20031;-80
2023/06/28 08:58:54;;;;;;;5.97;4.03;;;17.30;99.90;;;;;;5106838;27;20043;-79
2023/06/28 09:01:23;;;;;;;7.82;3.80;;;17.20;99.90;;;;;;5109357;27;20186;-80
2023/06/28 09:03:50;;;;;;;7.57;3.92;;;17.30;99.90;;;;;;5072744;27;20051;-80
2023/06/28 09:06:16;;;;;;;4.40;3.42;;;17.30;99.90;;;;;;5091352;27;20104;-80
2023/06/28 09:08:43;;;;;;;5.75;3.67;;;17.30;99.90;;;;;;5107875;27;20071;-80
2023/06/28 09:11:11;;;;;;;9.23;4.38;;;17.10;99.90;;;;;;5090597;27;20043;-80
2023/06/28 09:13:38;;;;;;;10.70;6.25;;;17.10;99.90;;;;;;5074215;27;20039;-80
2023/06/28 09:16:09;;;;;;;11.40;4.07;;;17.10;99.90;;;;;;5106842;27;20089;-80
2023/06/28 09:18:35;;;;;;;6.88;4.47;;;17.10;99.90;;;;;;5109015;27;20582;-80
2023/06/28 09:21:01;;;;;;;8.30;5.20;;;17.20;99.90;;;;;;5106748;27;20129;-79
2023/06/28 09:23:28;;;;;;;10.27;4.10;;;17.20;99.90;;;;;;5075064;27;20106;-79
2023/06/28 09:25:55;;;;;;;13.77;4.78;;;17.20;99.90;;;;;;5106971;27;20035;-81
2023/06/28 09:28:32;;;;;;;7.60;4.95;;;17.30;99.90;;;;;;5089958;27;20490;-81
2023/06/28 09:30:58;;;;;;;7.78;4.40;;;17.30;99.90;;;;;;5108411;27;20043;-80
2023/06/28 09:33:24;;;;;;;6.90;4.45;;;17.30;99.90;;;;;;5124345;27;20141;-80
2023/06/28 09:35:57;;;;;;;11.80;5.07;;;17.30;99.90;;;;;;5091526;27;20039;-80
2023/06/28 09:38:24;;;;;;;8.50;4.68;;;17.30;99.90;;;;;;5088662;27;20046;-80
2023/06/28 09:40:54;;;;;;;11.68;5.93;;;17.30;99.90;;;;;;5089731;27;20043;-78
2023/06/28 09:43:23;;;;;;;7.20;5.35;;;17.20;99.90;;;;;;5125920;27;20043;-81
2023/06/28 09:45:49;;;;;;;13.45;6.13;;;17.20;99.90;;;;;;5089798;28;20062;-81
2023/06/28 09:48:14;;;;;;;7.10;5.22;;;17.30;99.90;;;;;;5126551;27;20086;-80
2023/06/28 09:50:46;;;;;;;10.00;5.95;;;17.30;99.90;;;;;;5106221;28;20082;-82
2023/06/28 09:53:13;;;;;;;8.95;6.05;;;17.30;99.90;;;;;;5091552;28;20055;-80
2023/06/28 09:55:46;;;;;;;12.27;6.38;;;17.40;99.90;;;;;;5107226;27;20416;-79
2023/06/28 09:58:13;;;;;;;;;;;17.40;99.90;;;;;;5107450;27;20055;-79
2023/06/28 10:00:40;;;;;;;8.43;5.80;;;17.40;99.90;;;;;;5107543;28;19923;-79
2023/06/28 10:03:08;;;;;;;9.15;6.60;;;17.40;99.90;;;;;;5090727;28;20129;-77
2023/06/28 10:05:37;;;;;;;10.13;6.05;;;17.40;99.90;;;;;;5114100;28;20035;-79
2023/06/28 10:08:06;;;;;;;12.40;6.78;;;17.30;99.90;;;;;;5113373;27;20031;-79
2023/06/28 10:10:34;;;;;;;12.13;6.50;;;17.30;99.90;;;;;;5112628;27;20082;-79
2023/06/28 10:13:18;;;;;;;12.18;7.30;;;17.20;99.90;;;;;;5078337;27;20495;-79
2023/06/28 10:16:06;;;;;;;9.52;7.43;;;17.20;99.90;;;;;;5110630;27;20109;-78
2023/06/28 10:18:32;;;;;;;12.73;6.80;;;17.20;99.90;;;;;;5112163;27;20058;-78
2023/06/28 10:21:00;;;;;;;11.07;6.70;;;17.20;99.90;;;;;;5110031;27;20050;-79
2023/06/28 10:23:27;;;;;;;9.98;7.05;;;17.20;99.90;;;;;;5094291;27;20128;-79
2023/06/28 10:25:55;;;;;;;11.05;7.90;;;17.20;99.90;;;;;;5077160;27;20039;-78
2023/06/28 10:28:21;;;;;;;14.18;7.95;;;17.30;99.90;;;;;;5110310;27;20039;-79
2023/06/28 10:30:47;;;;;;;12.50;7.82;;;17.30;99.90;;;;;;5094937;27;20049;-79
2023/06/28 10:33:18;;;;;;;16.42;7.57;;;17.30;99.90;;;;;;5110534;27;20112;-80
2023/06/28 10:35:44;;;;;;;12.65;7.65;;;17.30;99.90;;;;;;5078144;27;20043;-79
2023/06/28 10:38:11;;;;;;;11.60;8.38;;;17.30;99.90;;;;;;5092986;27;20086;-79
2023/06/28 10:40:39;;;;;;;13.18;7.63;;;17.30;99.90;;;;;;5111044;27;20047;-79
2023/06/28 10:43:04;;;;;;;9.98;7.03;;;17.30;99.90;;;;;;5110921;27;20039;-80
2023/06/28 10:45:37;;;;;;;13.77;7.78;;;17.30;99.90;;;;;;5092428;27;20452;-80
2023/06/28 10:48:04;;;;;;;10.82;7.10;;;17.30;99.90;;;;;;5094503;27;20055;-81
2023/06/28 10:50:43;;;;;;;10.02;6.80;;;17.30;99.90;;;;;;5092333;27;20031;-79
2023/06/28 10:53:50;;;;;;;12.88;6.68;;;17.30;99.90;;;;;;5110861;27;20482;-79
2023/06/28 10:56:18;;;;;;;9.77;6.97;;;17.30;99.90;;;;;;5099553;27;20510;-80
2023/06/28 10:58:47;;;;;;;10.93;7.32;;;17.30;99.90;;;;;;5108636;27;20043;-79
2023/06/28 11:01:36;;;;;;;11.95;7.80;;;17.30;99.90;;;;;;5077632;27;20047;-79
2023/06/28 11:04:21;;;;;;;12.07;7.60;;;17.20;99.90;;;;;;5109390;27;20047;-79
2023/06/28 11:06:47;;;;;;;10.25;7.18;;;17.30;99.90;;;;;;5109172;27;20115;-80
2023/06/28 11:09:15;;;;;;;9.35;6.90;;;17.30;99.90;;;;;;5110630;27;20043;-79
2023/06/28 11:11:54;;;;;;;12.90;6.88;;;17.30;99.90;;;;;;5108835;27;20406;-80
2023/06/28 11:14:31;;;;;;;12.90;9.90;;;17.30;99.90;;;;;;5111041;27;20036;-80
2023/06/28 11:17:03;;;;;;;11.20;7.53;;;17.30;99.90;;;;;;5109433;27;20092;-78
2023/06/28 11:19:29;;;;;;;9.98;6.90;;;17.30;99.90;;;;;;5127602;27;20043;-79
2023/06/28 11:21:57;;;;;;;9.88;7.47;;;17.40;99.90;;;;;;5110289;27;20087;-79
2023/06/28 11:24:43;;;;;;;9.85;8.25;;;17.30;99.90;;;;;;5091958;27;20104;-79
2023/06/28 11:27:19;;;;;;;11.13;7.00;;;17.30;99.90;;;;;;5129381;27;20121;-78
2023/06/28 11:29:57;;;;;;;13.65;8.65;;;17.40;99.90;;;;;;5127572;27;20045;-79
2023/06/28 11:32:28;;;;;;;11.70;8.02;;;17.40;99.90;;;;;;5108587;27;20105;-78
2023/06/28 11:34:55;;;;;;;12.93;9.05;;;17.40;99.90;;;;;;5128566;27;20047;-79
2023/06/28 11:37:22;;;;;;;9.75;6.88;;;17.30;99.90;;;;;;5108343;27;20081;-79
2023/06/28 11:39:51;;;;;;;17.10;8.77;;;17.30;99.90;;;;;;5132400;27;20047;-78
2023/06/28 11:42:18;;;;;;;11.48;8.38;;;16.60;99.90;;;;;;5114830;27;20051;-79
2023/06/28 11:44:46;;;;;;;13.00;8.77;;;17.20;99.90;;;;;;5112129;27;20055;-79
2023/06/28 11:47:12;;;;;;;13.80;8.40;;;17.20;99.90;;;;;;5111137;27;20149;-82
2023/06/28 11:49:39;;;;;;;11.50;8.38;;;17.20;99.90;;;;;;5128528;27;20070;-80
2023/06/28 11:52:06;;;;;;;12.88;8.57;;;17.20;99.90;;;;;;5129502;27;20043;-79
2023/06/28 11:54:32;;;;;;;13.88;9.07;;;17.20;99.90;;;;;;5126969;27;20047;-80
2023/06/28 11:56:57;;;;;;;11.27;8.27;;;17.20;99.90;;;;;;5093770;27;20054;-80
2023/06/28 11:59:25;;;;;;;14.73;8.18;;;17.30;99.90;;;;;;5108522;27;20130;-80
2023/06/28 12:02:05;;;;;;;15.73;9.10;;;17.30;99.90;;;;;;5076813;27;20119;-80
2023/06/28 12:04:32;;;;;;;13.57;9.55;;;17.30;99.90;;;;;;5110061;27;20043;-80
2023/06/28 12:07:01;;;;;;;15.27;10.43;;;17.30;99.90;;;;;;5127038;27;20055;-80
2023/06/28 12:09:35;;;;;;;10.55;8.73;;;17.40;99.90;;;;;;5111022;27;20039;-80
2023/06/28 12:12:04;;;;;;;11.80;9.60;;;17.40;99.90;;;;;;5108391;27;20047;-80
2023/06/28 12:14:41;;;;;;;16.92;11.02;;;17.40;99.90;;;;;;5092756;27;20042;-80
2023/06/28 12:17:06;;;;;;;15.43;10.18;;;17.40;99.90;;;;;;5109466;27;20047;-80
2023/06/28 12:19:35;;;;;;;14.55;10.45;;;17.40;99.90;;;;;;5091127;27;20406;-78
2023/06/28 12:22:08;;;;;;;13.43;10.70;;;17.50;99.90;;;;;;5109835;27;20054;-80
2023/06/28 12:24:36;;;;;;;;;;;17.50;99.90;;;;;;5091128;27;20051;-81
2023/06/28 12:27:05;;;;;;;15.98;11.35;;;17.50;99.90;;;;;;5128545;27;19924;-78
2023/06/28 12:29:36;;;;;;;13.35;10.70;;;17.60;99.90;;;;;;5126765;27;20050;-80
2023/06/28 12:32:07;;;;;;;15.38;11.70;;;17.60;99.90;;;;;;5108584;27;20093;-82
2023/06/28 12:34:34;;;;;;;17.33;12.48;;;17.70;99.90;;;;;;5108900;27;20359;-81
2023/06/28 12:37:11;;;;;;;17.70;11.75;;;17.70;99.90;;;;;;5090590;27;20074;-81
2023/06/28 12:39:40;;;;;;;18.30;11.98;;;17.80;99.90;;;;;;5109655;27;20563;-79
2023/06/28 12:42:19;;;;;;;14.98;11.32;;;17.80;99.90;;;;;;5126387;27;20126;-80
2023/06/28 12:44:52;;;;;;;15.73;11.48;;;17.90;99.90;;;;;;5107777;27;20304;-78
2023/06/28 12:47:24;;;;;;;15.82;12.30;;;17.90;99.90;;;;;;5108554;27;20471;-78